West Valley, NY

12:48 PM EDT on June 03, 2015 (GMT -0400)
Rt. 39 Swan Pond | | Change Station
CLOSE
Current Station
Personal Weather Station
Location: Springville, NY
Elevation: 1342 ft
Nearby Weather Stations

Elev 1342 ft 42.51 °N, 78.63 °W | Updated 47 seconds ago

Clear
Clear
67.5 °F
Feels Like 67.5 °F
N
10.5
Wind Variable Wind from ENE
Gusts 12.3 mph

Today
High -- | Low -- °F
--% Chance of Precip.
Yesterday
High -- | Low -- °F
Precip. -- in
5:39 AM 8:46 PM
Full, 99% visible
Pressure 30.21 in
Visibility 10.0 miles
Clouds Clear
Dew Point 45 °F
Humidity 44%
Rainfall 0.00 in
Snow Depth Not available.
UV 8.0 out of 12
Pollen 9.00 out of 12
Air Quality Not available.
Flu Activity Sporadic
METAR KOLE 031615Z AUTO 14009KT 10SM CLR 16/07 A3021 RMK AO2

More Conditions Fewer Conditions

Pressure 30.21 in
Visibility 10.0 miles
Clouds Clear
Dew Point 45 °F
Humidity 44%
Rainfall 0.00 in
Snow Depth Not available.
UV 8.0 out of 12
Pollen 9.00 out of 12
Air Quality Not available.
Flu Activity Sporadic
METAR KOLE 031615Z AUTO 14009KT 10SM CLR 16/07 A3021 RMK AO2

More Conditions Fewer Conditions

10-Day Weather Forecast

×

Almanac

Astronomy

Jun. 03, 2015 Rise Set
Actual Time
Civil Twilight
Nautical Twilight
Astronomical Twilight
Moon
Length of Visible Light
Length of Day
Tomorrow will be .
, % of the Moon is Illuminated

Today's Extremes

State Highs State Lows

Community

WunderPhotos

Upload Photos

1,826,256 photos uploaded!

WunderBlogs® & News

Nearby

Air Quality

  Air Quality AQ Index Pollutant
Not available.

Snow Depth

Station Depth Elevation

Earthquake Activity

City Distance Mag. Time & Date
Minimum magnitude displayed is 2.5.

Coastal Water Temperatures

Place Temperature

Stations

Nearby Weather Stations

Station Location Temp. Windchill Dew Point Humidity Wind Precip. Elev Updated Type